createdAt,value
2023-04-15T00:01:05.897Z,95820.31
2023-04-15T00:03:08.334Z,95811.44
2023-04-15T00:05:10.529Z,95818.28
2023-04-15T00:07:12.382Z,95808.34
2023-04-15T00:09:13.980Z,95812.25
2023-04-15T00:11:15.460Z,95811.91
2023-04-15T00:13:17.124Z,95811.91
2023-04-15T00:15:19.110Z,95809.22
2023-04-15T00:17:20.951Z,95811.47
2023-04-15T00:19:24.110Z,95820.25
2023-04-15T00:21:26.975Z,95812.25
2023-04-15T00:23:28.725Z,95806.56
2023-04-15T00:25:30.220Z,95805.06
2023-04-15T00:27:31.696Z,95806.97
2023-04-15T00:29:33.544Z,95795.81
2023-04-15T00:31:35.177Z,95803.81
2023-04-15T00:33:36.851Z,95798.50
2023-04-15T00:35:39.463Z,95795.47
2023-04-15T00:37:41.503Z,95798.50
2023-04-15T00:39:43.927Z,95801.09
2023-04-15T00:41:46.298Z,95802.31
2023-04-15T00:43:47.984Z,95794.69
2023-04-15T00:45:53.573Z,95795.75
2023-04-15T00:47:55.988Z,95801.06
2023-04-15T00:49:57.935Z,95794.94
2023-04-15T00:51:59.451Z,95791.56
2023-04-15T00:54:01.294Z,95786.22
2023-04-15T00:56:02.987Z,95791.50
2023-04-15T00:58:04.827Z,95788.78
2023-04-15T01:00:08.698Z,95783.88
2023-04-15T01:02:10.491Z,95792.69
2023-04-15T01:04:13.149Z,95790.41
2023-04-15T01:06:15.134Z,95796.44
2023-04-15T01:08:16.813Z,95793.34
2023-04-15T01:10:18.648Z,95791.75
2023-04-15T01:12:20.659Z,95792.56
2023-04-15T01:14:22.475Z,95788.34
2023-04-15T01:16:24.232Z,95787.25
2023-04-15T01:18:26.532Z,95786.88
2023-04-15T01:20:29.703Z,95790.72
2023-04-15T01:22:34.320Z,95793.44
2023-04-15T01:24:37.549Z,95789.50
2023-04-15T01:26:40.488Z,95788.72
2023-04-15T01:28:43.421Z,95784.94
2023-04-15T01:30:44.931Z,95785.72
2023-04-15T01:32:46.524Z,95784.97
2023-04-15T01:35:07.637Z,95782.31
2023-04-15T01:37:22.766Z,95784.22
2023-04-15T01:39:25.897Z,95784.91
2023-04-15T01:41:31.587Z,95785.59
2023-04-15T01:43:36.279Z,95786.25
2023-04-15T01:45:39.056Z,95777.56
2023-04-15T01:47:41.783Z,95777.59
2023-04-15T01:49:46.105Z,95779.13
2023-04-15T01:51:48.774Z,95780.63
2023-04-15T01:53:52.506Z,95782.50
2023-04-15T01:55:55.523Z,95775.28
2023-04-15T01:57:58.313Z,95782.56
2023-04-15T02:00:01.124Z,95773.81
2023-04-15T02:02:04.654Z,95776.34
2023-04-15T02:04:08.046Z,95770.94
2023-04-15T02:06:11.258Z,95771.63
2023-04-15T02:08:14.409Z,95772.00
2023-04-15T02:10:17.294Z,95775.88
2023-04-15T02:12:20.081Z,95772.81
2023-04-15T02:14:22.967Z,95776.19
2023-04-15T02:16:25.951Z,95772.00
2023-04-15T02:18:28.803Z,95774.72
2023-04-15T02:20:32.179Z,95772.00
2023-04-15T02:22:35.043Z,95766.28
2023-04-15T02:24:37.917Z,95772.44
2023-04-15T02:26:40.736Z,95766.31
2023-04-15T02:28:43.512Z,95771.34
2023-04-15T02:30:47.534Z,95775.56
2023-04-15T02:32:50.280Z,95783.19
2023-04-15T02:34:53.556Z,95774.66
2023-04-15T02:36:57.729Z,95786.88
2023-04-15T02:39:01.271Z,95776.50
2023-04-15T02:41:04.947Z,95773.78
2023-04-15T02:43:07.750Z,95783.31
2023-04-15T02:45:13.137Z,95774.97
2023-04-15T02:47:16.914Z,95778.34
2023-04-15T02:49:19.751Z,95778.38
2023-04-15T02:51:23.170Z,95781.88
2023-04-15T02:53:26.747Z,95784.47
2023-04-15T02:55:29.627Z,95786.31
2023-04-15T02:57:32.564Z,95786.06
2023-04-15T02:59:41.013Z,95780.81
2023-04-15T03:01:43.999Z,95779.69
2023-04-15T03:03:47.065Z,95780.03
2023-04-15T03:05:49.963Z,95770.81
2023-04-15T03:07:53.863Z,95768.19
2023-04-15T03:09:57.721Z,95770.09
2023-04-15T03:12:01.152Z,95764.69
2023-04-15T03:14:03.958Z,95771.16
2023-04-15T03:16:11.039Z,95764.91
2023-04-15T03:18:14.170Z,95766.13
2023-04-15T03:20:17.591Z,95759.31
2023-04-15T03:22:20.459Z,95761.19
2023-04-15T03:24:24.800Z,95763.47
2023-04-15T03:26:31.635Z,95761.66
2023-04-15T03:28:39.263Z,95764.69
2023-04-15T03:30:42.163Z,95769.19
2023-04-15T03:32:45.219Z,95759.56
2023-04-15T03:34:49.055Z,95764.56
2023-04-15T03:36:52.295Z,95754.25
2023-04-15T03:38:56.112Z,95755.44
2023-04-15T03:40:59.354Z,95758.06
2023-04-15T03:43:02.351Z,95760.72
2023-04-15T03:45:05.739Z,95761.53
2023-04-15T03:47:08.627Z,95764.63
2023-04-15T03:49:11.377Z,95759.63
2023-04-15T03:51:14.071Z,95761.16
2023-04-15T03:53:16.953Z,95757.72
2023-04-15T03:55:20.607Z,95756.59
2023-04-15T03:57:23.570Z,95758.13
2023-04-15T03:59:26.501Z,95761.53
2023-04-15T04:01:29.533Z,95756.53
2023-04-15T04:03:32.540Z,95765.66
2023-04-15T04:05:38.835Z,95764.44
2023-04-15T04:07:41.660Z,95768.56
2023-04-15T04:09:45.694Z,95762.84
2023-04-15T04:11:49.866Z,95763.59
2023-04-15T04:13:53.163Z,95760.13
2023-04-15T04:15:56.195Z,95771.34
2023-04-15T04:17:59.016Z,95768.38
2023-04-15T04:20:02.031Z,95765.66
2023-04-15T04:22:05.021Z,95765.97
2023-04-15T04:24:07.904Z,95762.84
2023-04-15T04:26:10.911Z,95770.06
2023-04-15T04:28:13.713Z,95759.41
2023-04-15T04:30:16.911Z,95777.38
2023-04-15T04:32:19.672Z,95771.25
2023-04-15T04:34:22.685Z,95770.78
2023-04-15T04:36:26.331Z,95777.38
2023-04-15T04:38:29.166Z,95772.16
2023-04-15T04:40:31.943Z,95778.22
2023-04-15T04:42:35.709Z,95775.47
2023-04-15T04:44:39.757Z,95783.13
2023-04-15T04:46:42.517Z,95782.41
2023-04-15T04:48:47.081Z,95783.50
2023-04-15T04:50:50.424Z,95772.09
2023-04-15T04:52:53.426Z,95769.06
2023-04-15T04:54:56.426Z,95770.66
2023-04-15T04:56:59.366Z,95776.00
2023-04-15T04:59:02.366Z,95780.13
2023-04-15T05:01:05.671Z,95781.94
2023-04-15T05:03:08.755Z,95784.56
2023-04-15T05:05:11.800Z,95782.47
2023-04-15T05:07:14.671Z,95772.53
2023-04-15T05:09:17.480Z,95775.09
2023-04-15T05:11:20.280Z,95772.31
2023-04-15T05:13:23.409Z,95777.75
2023-04-15T05:15:26.201Z,95777.03
2023-04-15T05:17:31.166Z,95776.97
2023-04-15T05:19:34.174Z,95773.44
2023-04-15T05:21:38.992Z,95780.75
2023-04-15T05:23:42.485Z,95775.31
2023-04-15T05:25:45.324Z,95780.69
2023-04-15T05:27:48.099Z,95780.59
2023-04-15T05:29:50.924Z,95784.38
2023-04-15T05:31:53.847Z,95780.88
2023-04-15T05:33:56.787Z,95784.22
2023-04-15T05:35:59.655Z,95781.44
2023-04-15T05:38:02.601Z,95774.84
2023-04-15T05:40:06.010Z,95787.03
2023-04-15T05:42:08.852Z,95783.09
2023-04-15T05:44:11.713Z,95786.94
2023-04-15T05:46:14.581Z,95778.88
2023-04-15T05:48:17.443Z,95768.84
2023-04-15T05:50:21.156Z,95781.34
2023-04-15T05:52:24.064Z,95787.94
2023-04-15T05:54:27.840Z,95792.25
2023-04-15T05:56:31.581Z,95795.31
2023-04-15T05:58:34.388Z,95788.78
2023-04-15T06:00:37.221Z,95787.50
2023-04-15T06:02:40.324Z,95789.47
2023-04-15T06:04:43.725Z,95797.72
2023-04-15T06:06:47.097Z,95790.63
2023-04-15T06:08:49.894Z,95790.44
2023-04-15T06:10:53.452Z,95794.88
2023-04-15T06:12:56.623Z,95786.88
2023-04-15T06:15:00.271Z,95793.75
2023-04-15T06:17:03.325Z,95791.06
2023-04-15T06:19:06.244Z,95797.75
2023-04-15T06:21:09.232Z,95798.88
2023-04-15T06:23:12.057Z,95805.97
2023-04-15T06:25:15.119Z,95806.22
2023-04-15T06:27:18.231Z,95799.19
2023-04-15T06:29:21.188Z,95807.66
2023-04-15T06:31:23.994Z,95799.00
2023-04-15T06:33:26.920Z,95797.44
2023-04-15T06:35:29.705Z,95808.88
2023-04-15T06:37:32.580Z,95806.53
2023-04-15T06:39:35.373Z,95807.06
2023-04-15T06:41:38.256Z,95802.91
2023-04-15T06:43:41.099Z,95809.06
2023-04-15T06:45:44.499Z,95815.69
2023-04-15T06:47:47.323Z,95817.31
2023-04-15T06:49:50.249Z,95818.53
2023-04-15T06:51:53.450Z,95812.75
2023-04-15T06:53:57.161Z,95820.28
2023-04-15T06:56:00.129Z,95813.25
2023-04-15T06:58:02.969Z,95814.28
2023-04-15T07:00:07.394Z,95809.16
2023-04-15T07:02:13.304Z,95806.06
2023-04-15T07:04:16.097Z,95808.00
2023-04-15T07:06:19.792Z,95821.03
2023-04-15T07:08:23.043Z,95815.47
2023-04-15T07:10:26.029Z,95814.72
2023-04-15T07:12:29.074Z,95820.00
2023-04-15T07:14:31.990Z,95820.34
2023-04-15T07:16:34.829Z,95813.94
2023-04-15T07:18:37.944Z,95821.38
2023-04-15T07:20:40.902Z,95819.09
2023-04-15T07:22:44.050Z,95825.38
2023-04-15T07:24:47.043Z,95817.91
2023-04-15T07:26:49.844Z,95823.25
2023-04-15T07:28:52.950Z,95819.97
2023-04-15T07:30:57.150Z,95826.09
2023-04-15T07:33:00.220Z,95825.41
2023-04-15T07:35:03.662Z,95823.41
2023-04-15T07:37:06.537Z,95816.69
2023-04-15T07:39:09.337Z,95819.28
2023-04-15T07:41:12.247Z,95823.66
2023-04-15T07:43:15.572Z,95826.41
2023-04-15T07:45:18.513Z,95825.38
2023-04-15T07:47:22.046Z,95826.75
2023-04-15T07:49:24.965Z,95828.63
2023-04-15T07:51:29.221Z,95827.97
2023-04-15T07:53:32.991Z,95833.06
2023-04-15T07:55:35.893Z,95828.97
2023-04-15T07:57:38.654Z,95829.78
2023-04-15T07:59:41.738Z,95830.59
2023-04-15T08:01:45.056Z,95831.31
2023-04-15T08:03:48.577Z,95836.25
2023-04-15T08:05:51.477Z,95825.22
2023-04-15T08:07:54.758Z,95840.13
2023-04-15T08:09:57.521Z,95828.03
2023-04-15T08:12:00.925Z,95824.31
2023-04-15T08:14:03.681Z,95830.91
2023-04-15T08:16:25.699Z,95828.63
2023-04-15T08:18:28.465Z,95832.28
2023-04-15T08:20:31.213Z,95834.50
2023-04-15T08:22:34.381Z,95836.19
2023-04-15T08:24:37.575Z,95842.00
2023-04-15T08:26:42.157Z,95843.00
2023-04-15T08:28:46.248Z,95836.88
2023-04-15T08:30:49.042Z,95841.28
2023-04-15T08:32:52.230Z,95838.63
2023-04-15T08:34:55.290Z,95842.22
2023-04-15T08:36:58.199Z,95844.88
2023-04-15T08:39:04.949Z,95847.72
2023-04-15T08:41:16.981Z,95844.84
2023-04-15T08:43:26.360Z,95848.97
2023-04-15T08:45:29.570Z,95852.66
2023-04-15T08:47:33.684Z,95849.84
2023-04-15T08:49:40.569Z,95848.69
2023-04-15T08:51:43.591Z,95859.91
2023-04-15T08:53:47.512Z,95850.84
2023-04-15T08:55:53.351Z,95849.31
2023-04-15T08:57:56.283Z,95852.59
2023-04-15T08:59:59.188Z,95848.38
2023-04-15T09:02:02.632Z,95856.78
2023-04-15T09:04:07.822Z,95859.66
2023-04-15T09:06:11.573Z,95859.56
2023-04-15T09:08:15.375Z,95858.75
2023-04-15T09:10:18.500Z,95859.66
2023-04-15T09:12:21.772Z,95859.13
2023-04-15T09:14:24.599Z,95867.00
2023-04-15T09:16:27.626Z,95869.31
2023-04-15T09:18:33.368Z,95869.97
2023-04-15T09:20:42.271Z,95874.50
2023-04-15T09:22:46.733Z,95870.44
2023-04-15T09:24:49.553Z,95878.78
2023-04-15T09:26:54.666Z,95877.53
2023-04-15T09:29:06.833Z,95884.09
2023-04-15T09:31:10.760Z,95887.81
2023-04-15T09:33:14.871Z,95891.16
2023-04-15T09:35:18.800Z,95890.88
2023-04-15T09:37:35.513Z,95892.19
2023-04-15T09:39:49.809Z,95887.63
2023-04-15T09:42:08.805Z,95892.97
2023-04-15T09:44:25.104Z,95897.28
2023-04-15T09:46:44.918Z,95891.56
2023-04-15T09:49:07.583Z,95897.97
2023-04-15T09:51:10.445Z,95901.38
2023-04-15T09:53:17.081Z,95897.00
2023-04-15T09:55:19.914Z,95896.00
2023-04-15T09:57:23.701Z,95899.63
2023-04-15T09:59:26.505Z,95896.44
2023-04-15T10:01:29.692Z,95888.78
2023-04-15T10:03:35.779Z,95899.72
2023-04-15T10:05:39.728Z,95895.00
2023-04-15T10:07:43.434Z,95897.94
2023-04-15T10:09:46.985Z,95898.19
2023-04-15T10:11:50.249Z,95900.63
2023-04-15T10:13:55.531Z,95907.78
2023-04-15T10:16:00.861Z,95896.03
2023-04-15T10:18:07.160Z,95903.59
2023-04-15T10:20:10.788Z,95908.97
2023-04-15T10:22:14.798Z,95908.06
2023-04-15T10:24:17.954Z,95910.38
2023-04-15T10:26:21.399Z,95907.38
2023-04-15T10:28:24.805Z,95919.09
2023-04-15T10:30:27.792Z,95911.56
2023-04-15T10:32:34.042Z,95924.53
2023-04-15T10:34:37.910Z,95913.25
2023-04-15T10:36:41.476Z,95918.59
2023-04-15T10:38:45.761Z,95917.84
2023-04-15T10:40:50.520Z,95918.25
2023-04-15T10:42:58.114Z,95918.59
2023-04-15T10:45:02.046Z,95916.91
2023-04-15T10:47:18.541Z,95921.28
2023-04-15T10:49:26.080Z,95922.22
2023-04-15T10:51:31.316Z,95930.69
2023-04-15T10:53:34.246Z,95930.00
2023-04-15T10:55:37.149Z,95932.00
2023-04-15T10:57:41.417Z,95932.53
2023-04-15T11:00:19.305Z,95942.84
2023-04-15T11:02:22.296Z,95929.38
2023-04-15T11:04:59.920Z,95931.28
2023-04-15T11:07:07.064Z,95934.66
2023-04-15T11:09:33.738Z,95936.22
2023-04-15T11:12:06.319Z,95939.91
2023-04-15T11:14:16.129Z,95934.78
2023-04-15T11:16:18.979Z,95939.22
2023-04-15T11:18:24.510Z,95951.03
2023-04-15T11:20:27.393Z,95950.00
2023-04-15T11:22:30.275Z,95950.13
2023-04-15T11:24:33.077Z,95951.59
2023-04-15T11:26:35.918Z,95958.22
2023-04-15T11:28:48.132Z,95957.34
2023-04-15T11:30:50.965Z,95961.94
2023-04-15T11:32:58.565Z,95963.72
2023-04-15T11:35:01.423Z,95965.38
2023-04-15T11:37:06.188Z,95956.00
2023-04-15T11:39:08.987Z,95957.66
2023-04-15T11:41:11.841Z,95958.63
2023-04-15T11:43:22.953Z,95967.75
2023-04-15T11:45:25.849Z,95961.97
2023-04-15T11:47:28.729Z,95961.97
2023-04-15T11:49:33.893Z,95973.88
2023-04-15T11:51:35.568Z,95975.19
2023-04-15T11:53:40.596Z,95972.56
2023-04-15T11:55:47.232Z,95984.78
2023-04-15T11:57:48.918Z,95975.13
2023-04-15T11:59:50.435Z,95978.78
2023-04-15T12:01:52.781Z,95983.06
2023-04-15T12:03:54.635Z,95974.34
2023-04-15T12:06:13.110Z,95977.19
2023-04-15T12:08:14.659Z,95982.16
2023-04-15T12:10:17.653Z,95982.56
2023-04-15T12:12:19.414Z,95989.69
2023-04-15T12:14:26.007Z,95995.88
2023-04-15T12:16:28.568Z,95997.59
2023-04-15T12:18:30.105Z,96000.13
2023-04-15T12:20:31.666Z,96005.53
2023-04-15T12:22:37.955Z,95997.19
2023-04-15T12:24:40.326Z,95999.41
2023-04-15T12:26:51.277Z,96006.53
2023-04-15T12:29:10.762Z,96003.53
2023-04-15T12:31:13.428Z,96005.88
2023-04-15T12:33:15.252Z,96022.47
2023-04-15T12:35:19.207Z,96008.69
2023-04-15T12:37:21.115Z,96026.00
2023-04-15T12:39:24.583Z,96018.97
2023-04-15T12:41:26.148Z,96022.59
2023-04-15T12:43:27.806Z,96028.69
2023-04-15T12:45:30.007Z,96034.41
2023-04-15T12:47:31.583Z,96032.66
2023-04-15T12:49:33.408Z,96039.41
2023-04-15T12:51:35.424Z,96028.63
2023-04-15T12:53:37.343Z,96036.72
2023-04-15T12:55:38.847Z,96038.50
2023-04-15T12:57:40.402Z,96040.63
2023-04-15T12:59:41.978Z,96041.59
2023-04-15T13:01:43.589Z,96044.09
2023-04-15T13:03:45.546Z,96044.09
2023-04-15T13:05:47.179Z,96037.09
2023-04-15T13:07:48.822Z,96044.16
2023-04-15T13:09:50.569Z,96051.72
2023-04-15T13:11:52.976Z,96044.00
2023-04-15T13:13:54.945Z,96048.66
2023-04-15T13:15:57.038Z,96053.59
2023-04-15T13:17:58.733Z,96053.34
2023-04-15T13:20:00.368Z,96052.44
2023-04-15T13:22:02.047Z,96051.47
2023-04-15T13:24:04.745Z,96051.16
2023-04-15T13:26:06.578Z,96054.16
2023-04-15T13:28:08.216Z,96053.47
2023-04-15T13:30:10.018Z,96062.72
2023-04-15T13:32:11.681Z,96060.31
2023-04-15T13:34:13.391Z,96061.31
2023-04-15T13:36:15.033Z,96062.22
2023-04-15T13:38:16.629Z,96069.22
2023-04-15T13:40:20.189Z,96060.75
2023-04-15T13:42:23.060Z,96061.31
2023-04-15T13:44:24.572Z,96069.56
2023-04-15T13:46:26.267Z,96065.81
2023-04-15T13:48:28.702Z,96069.22
2023-04-15T13:50:30.316Z,96067.28
2023-04-15T13:52:31.805Z,96071.28
2023-04-15T13:54:37.848Z,96074.34
2023-04-15T13:56:39.719Z,96087.28
2023-04-15T13:58:41.684Z,96084.00
2023-04-15T14:00:43.293Z,96082.19
2023-04-15T14:02:44.951Z,96077.16
2023-04-15T14:04:46.491Z,96092.59
2023-04-15T14:06:48.118Z,96090.41
2023-04-15T14:08:49.691Z,96088.78
2023-04-15T14:10:51.320Z,96093.47
2023-04-15T14:12:53.616Z,96100.16
2023-04-15T14:14:55.365Z,96101.03
2023-04-15T14:16:57.450Z,96097.19
2023-04-15T14:18:59.541Z,96102.56
2023-04-15T14:21:01.349Z,96101.44
2023-04-15T14:23:02.997Z,96111.81
2023-04-15T14:25:06.337Z,96120.66
2023-04-15T14:27:08.762Z,96109.72
2023-04-15T14:29:11.134Z,96115.97
2023-04-15T14:31:12.679Z,96116.38
2023-04-15T14:33:14.366Z,96121.38
2023-04-15T14:35:16.234Z,96117.50
2023-04-15T14:37:18.016Z,96121.09
2023-04-15T14:39:20.401Z,96129.03
2023-04-15T14:41:22.584Z,96128.44
2023-04-15T14:43:24.166Z,96131.88
2023-04-15T14:45:25.665Z,96131.75
2023-04-15T14:47:27.246Z,96137.53
2023-04-15T14:49:29.068Z,96133.81
2023-04-15T14:51:31.743Z,96135.81
2023-04-15T14:53:33.170Z,96138.53
2023-04-15T14:55:34.717Z,96137.25
2023-04-15T14:57:37.773Z,96142.84
2023-04-15T14:59:39.461Z,96145.41
2023-04-15T15:01:41.182Z,96149.47
2023-04-15T15:03:43.007Z,96149.13
2023-04-15T15:05:46.840Z,96148.00
2023-04-15T15:07:48.733Z,96157.53
2023-04-15T15:09:50.445Z,96158.63
2023-04-15T15:11:52.299Z,96165.47
2023-04-15T15:13:56.488Z,96171.69
2023-04-15T15:15:58.131Z,96163.13
2023-04-15T15:18:00.347Z,96160.84
2023-04-15T15:20:03.499Z,96172.38
2023-04-15T15:22:05.572Z,96173.00
2023-04-15T15:24:07.123Z,96167.03
2023-04-15T15:26:08.841Z,96173.38
2023-04-15T15:28:11.160Z,96180.69
2023-04-15T15:30:13.411Z,96173.47
2023-04-15T15:32:15.249Z,96187.28
2023-04-15T15:34:17.395Z,96178.75
2023-04-15T15:36:19.083Z,96180.78
2023-04-15T15:38:20.699Z,96188.41
2023-04-15T15:40:22.450Z,96192.00
2023-04-15T15:42:24.021Z,96188.34
2023-04-15T15:44:25.518Z,96196.00
2023-04-15T15:46:31.229Z,96199.66
2023-04-15T15:48:33.129Z,96198.91
2023-04-15T15:50:34.903Z,96193.00
2023-04-15T15:52:36.547Z,96203.22
2023-04-15T15:54:39.137Z,96204.03
2023-04-15T15:56:42.061Z,96207.88
2023-04-15T15:58:44.904Z,96207.44
2023-04-15T16:00:46.975Z,96204.06
2023-04-15T16:03:05.972Z,96213.41
2023-04-15T16:05:08.690Z,96218.31
2023-04-15T16:07:11.683Z,96224.78
2023-04-15T16:09:13.700Z,96222.75
2023-04-15T16:11:15.267Z,96225.50
2023-04-15T16:13:16.820Z,96230.13
2023-04-15T16:15:18.512Z,96226.81
2023-04-15T16:17:20.387Z,96234.47
2023-04-15T16:19:22.134Z,96235.56
2023-04-15T16:21:25.866Z,96237.47
2023-04-15T16:23:27.514Z,96240.28
2023-04-15T16:25:29.192Z,96232.81
2023-04-15T16:27:30.769Z,96234.78
2023-04-15T16:29:32.526Z,96246.16
2023-04-15T16:31:35.496Z,96246.00
2023-04-15T16:33:38.003Z,96248.03
2023-04-15T16:35:39.498Z,96247.91
2023-04-15T16:37:40.998Z,96256.41
2023-04-15T16:39:42.689Z,96261.16
2023-04-15T16:41:44.216Z,96255.25
2023-04-15T16:43:45.992Z,96258.28
2023-04-15T16:45:50.897Z,96259.19
2023-04-15T16:47:54.242Z,96263.94
2023-04-15T16:49:56.078Z,96260.31
2023-04-15T16:51:57.997Z,96267.09
2023-04-15T16:53:59.539Z,96273.44
2023-04-15T16:56:01.272Z,96271.94
2023-04-15T16:58:03.937Z,96273.44
2023-04-15T17:00:08.532Z,96275.81
2023-04-15T17:02:12.466Z,96290.31
2023-04-15T17:04:14.308Z,96283.41
2023-04-15T17:06:16.222Z,96288.06
2023-04-15T17:08:17.736Z,96290.75
2023-04-15T17:10:19.387Z,96292.34
2023-04-15T17:12:21.162Z,96295.75
2023-04-15T17:14:22.903Z,96300.38
2023-04-15T17:16:25.267Z,96302.75
2023-04-15T17:18:28.025Z,96304.19
2023-04-15T17:20:41.322Z,96305.22
2023-04-15T17:22:43.172Z,96316.78
2023-04-15T17:24:45.044Z,96314.09
2023-04-15T17:26:49.399Z,96313.09
2023-04-15T17:28:51.788Z,96309.19
2023-04-15T17:30:59.830Z,96312.97
2023-04-15T17:33:52.956Z,96316.84
2023-04-15T17:36:03.092Z,96311.88
2023-04-15T17:38:24.638Z,96309.66
2023-04-15T17:40:46.246Z,96325.06
2023-04-15T17:43:07.695Z,96326.88
2023-04-15T17:45:30.120Z,96325.94
2023-04-15T17:47:51.747Z,96326.34
2023-04-15T17:50:13.455Z,96331.00
2023-04-15T17:52:35.127Z,96336.06
2023-04-15T17:54:56.708Z,96335.03
2023-04-15T17:57:18.259Z,96336.50
2023-04-15T17:59:43.766Z,96345.56
2023-04-15T18:02:05.425Z,96340.31
2023-04-15T18:04:27.382Z,96343.19
2023-04-15T18:06:48.963Z,96353.25
2023-04-15T18:09:10.544Z,96355.66
2023-04-15T18:11:33.170Z,96360.97
2023-04-15T18:13:54.629Z,96367.47
2023-04-15T18:16:16.230Z,96365.16
2023-04-15T18:18:37.720Z,96373.63
2023-04-15T18:20:39.521Z,96377.84
2023-04-15T18:22:42.856Z,96388.56
2023-04-15T18:24:44.494Z,96379.81
2023-04-15T18:26:48.775Z,96390.81
2023-04-15T18:28:51.033Z,96385.16
2023-04-15T18:30:53.580Z,96393.13
2023-04-15T18:32:55.330Z,96394.53
2023-04-15T18:34:56.910Z,96393.94
2023-04-15T18:36:58.834Z,96390.84
2023-04-15T18:39:00.334Z,96399.69
2023-04-15T18:41:02.094Z,96400.56
2023-04-15T18:43:03.663Z,96405.56
2023-04-15T18:45:05.863Z,96395.09
2023-04-15T18:47:07.655Z,96401.19
2023-04-15T18:49:10.898Z,96411.19
2023-04-15T18:51:12.451Z,96412.59
2023-04-15T18:53:14.173Z,96411.47
2023-04-15T18:55:18.478Z,96412.13
2023-04-15T18:57:23.546Z,96423.53
2023-04-15T18:59:33.563Z,96419.06
2023-04-15T19:01:35.412Z,96428.66
2023-04-15T19:03:37.223Z,96435.84
2023-04-15T19:05:39.854Z,96427.06
2023-04-15T19:07:41.388Z,96429.44
2023-04-15T19:09:43.029Z,96440.53
2023-04-15T19:11:44.822Z,96437.69
2023-04-15T19:13:46.324Z,96439.53
2023-04-15T19:15:48.322Z,96447.28
2023-04-15T19:17:49.985Z,96442.34
2023-04-15T19:19:51.731Z,96454.09
2023-04-15T19:21:54.113Z,96448.13
2023-04-15T19:23:57.226Z,96454.38
2023-04-15T19:25:58.858Z,96457.59
2023-04-15T19:28:00.569Z,96462.91
2023-04-15T19:30:03.347Z,96463.09
2023-04-15T19:32:05.695Z,96470.44
2023-04-15T19:34:07.431Z,96468.47
2023-04-15T19:36:08.984Z,96473.66
2023-04-15T19:38:10.616Z,96471.44
2023-04-15T19:40:12.302Z,96468.09
2023-04-15T19:42:13.878Z,96472.22
2023-04-15T19:44:15.724Z,96479.06
2023-04-15T19:46:17.429Z,96480.53
2023-04-15T19:48:19.255Z,96476.63
2023-04-15T19:50:24.590Z,96471.72
2023-04-15T19:52:26.367Z,96469.16
2023-04-15T19:54:28.088Z,96475.22
2023-04-15T19:56:31.186Z,96475.22
2023-04-15T19:58:33.938Z,96479.03
2023-04-15T20:00:36.594Z,96478.84
2023-04-15T20:02:38.413Z,96478.19
2023-04-15T20:04:40.136Z,96480.88
2023-04-15T20:06:41.876Z,96483.31
2023-04-15T20:08:43.421Z,96482.41
2023-04-15T20:10:44.937Z,96482.78
2023-04-15T20:12:51.355Z,96487.78
2023-04-15T20:14:54.202Z,96488.13
2023-04-15T20:16:56.084Z,96484.22
2023-04-15T20:19:02.153Z,96493.47
2023-04-15T20:21:03.994Z,96487.38
2023-04-15T20:23:05.626Z,96490.38
2023-04-15T20:25:07.658Z,96491.31
2023-04-15T20:27:09.223Z,96485.94
2023-04-15T20:29:10.855Z,96487.47
2023-04-15T20:31:12.445Z,96483.66
2023-04-15T20:33:14.316Z,96485.63
2023-04-15T20:35:16.044Z,96487.25
2023-04-15T20:37:17.837Z,96496.41
2023-04-15T20:39:19.692Z,96492.44
2023-04-15T20:41:22.034Z,96492.97
2023-04-15T20:43:24.160Z,96491.38
2023-04-15T20:45:26.109Z,96500.56
2023-04-15T20:47:27.865Z,96500.81
2023-04-15T20:49:33.700Z,96503.66
2023-04-15T20:51:37.761Z,96501.38
2023-04-15T20:53:40.546Z,96496.75
2023-04-15T20:55:43.553Z,96503.66
2023-04-15T20:57:45.374Z,96499.66
2023-04-15T20:59:47.033Z,96500.50
2023-04-15T21:01:48.650Z,96497.38
2023-04-15T21:03:50.342Z,96505.22
2023-04-15T21:05:52.316Z,96505.63
2023-04-15T21:07:54.356Z,96509.81
2023-04-15T21:09:56.110Z,96512.56
2023-04-15T21:12:01.620Z,96521.13
2023-04-15T21:14:07.164Z,96521.44
2023-04-15T21:16:08.739Z,96519.13
2023-04-15T21:18:10.436Z,96516.88
2023-04-15T21:20:12.262Z,96521.97
2023-04-15T21:22:14.015Z,96510.78
2023-04-15T21:24:15.748Z,96520.81
2023-04-15T21:26:18.198Z,96525.06
2023-04-15T21:28:19.755Z,96521.94
2023-04-15T21:30:21.249Z,96526.88
2023-04-15T21:32:23.117Z,96531.91
2023-04-15T21:34:24.824Z,96533.41
2023-04-15T21:36:26.860Z,96539.97
2023-04-15T21:38:28.429Z,96545.97
2023-04-15T21:40:30.101Z,96553.72
2023-04-15T21:42:31.757Z,96546.88
2023-04-15T21:44:33.296Z,96548.34
2023-04-15T21:46:35.628Z,96551.94
2023-04-15T21:48:37.778Z,96547.34
2023-04-15T21:50:39.470Z,96553.53
2023-04-15T21:52:41.189Z,96559.97
2023-04-15T21:54:43.159Z,96554.50
2023-04-15T21:56:44.723Z,96550.72
2023-04-15T21:58:46.291Z,96548.44
2023-04-15T22:00:48.025Z,96559.97
2023-04-15T22:02:50.145Z,96563.38
2023-04-15T22:04:52.207Z,96559.97
2023-04-15T22:06:55.678Z,96562.22
2023-04-15T22:08:57.926Z,96567.22
2023-04-15T22:10:59.679Z,96568.41
2023-04-15T22:13:02.957Z,96564.78
2023-04-15T22:15:04.941Z,96565.94
2023-04-15T22:17:06.576Z,96575.09
2023-04-15T22:19:08.430Z,96564.00
2023-04-15T22:21:10.344Z,96572.19
2023-04-15T22:23:11.944Z,96572.13
2023-04-15T22:25:14.332Z,96572.56
2023-04-15T22:27:15.949Z,96579.47
2023-04-15T22:29:17.507Z,96579.53
2023-04-15T22:31:19.279Z,96586.81
2023-04-15T22:33:20.957Z,96579.44
2023-04-15T22:35:22.560Z,96587.19
2023-04-15T22:37:24.188Z,96593.25
2023-04-15T22:39:26.089Z,96591.44
2023-04-15T22:41:27.586Z,96595.59
2023-04-15T22:43:29.086Z,96591.31
2023-04-15T22:45:30.796Z,96607.34
2023-04-15T22:47:32.530Z,96607.94
2023-04-15T22:49:35.087Z,96611.25
2023-04-15T22:51:37.949Z,96615.47
2023-04-15T22:53:39.476Z,96615.75
2023-04-15T22:55:45.636Z,96608.03
2023-04-15T22:57:47.245Z,96618.94
2023-04-15T22:59:48.867Z,96614.22
2023-04-15T23:01:50.781Z,96620.50
2023-04-15T23:03:55.616Z,96619.72
2023-04-15T23:06:00.163Z,96618.19
2023-04-15T23:08:01.687Z,96622.44
2023-04-15T23:10:03.401Z,96618.94
2023-04-15T23:12:05.120Z,96619.34
2023-04-15T23:14:06.617Z,96621.34
2023-04-15T23:16:08.342Z,96622.44
2023-04-15T23:18:10.159Z,96625.50
2023-04-15T23:20:12.538Z,96621.94
2023-04-15T23:22:14.096Z,96623.88
2023-04-15T23:24:16.085Z,96625.88
2023-04-15T23:26:17.577Z,96633.25
2023-04-15T23:28:19.245Z,96632.06
2023-04-15T23:30:20.854Z,96629.84
2023-04-15T23:32:22.669Z,96630.63
2023-04-15T23:34:24.354Z,96634.28
2023-04-15T23:36:27.166Z,96644.66
2023-04-15T23:38:28.855Z,96642.41
2023-04-15T23:40:30.776Z,96639.78
2023-04-15T23:42:32.390Z,96641.31
2023-04-15T23:44:33.972Z,96639.84
2023-04-15T23:46:35.806Z,96642.91
2023-04-15T23:48:38.255Z,96642.19
2023-04-15T23:50:39.767Z,96641.41
2023-04-15T23:52:41.327Z,96632.25
2023-04-15T23:54:42.971Z,96633.31
2023-04-15T23:56:44.537Z,96638.22
2023-04-15T23:58:46.159Z,96642.50
